Time;durP1;ratioP1;P1;durP2;ratioP2;P2;SDS_P1;SDS_P2;PMS_P1;PMS_P2;Temp;Humidity;BMP_temperature;BMP_pressure;BME280_temperature;BME280_humidity;BME280_pressure;Samples;Min_cycle;Max_cycle;Signal;HPM_P1;HPM_P2
2021/10/12 00:01:52;;;;;;;18.23;10.45;;;;;;;3.01;100.00;95858.41;5015793;28;20522;-59
2021/10/12 00:04:18;;;;;;;16.27;9.82;;;;;;;2.99;100.00;95860.44;5015820;28;20034;-59
2021/10/12 00:06:45;;;;;;;17.52;9.60;;;;;;;3.00;100.00;95862.91;4997709;28;20052;-58
2021/10/12 00:09:11;;;;;;;15.23;10.15;;;;;;;3.03;100.00;95862.50;4998077;28;20124;-56
2021/10/12 00:11:42;;;;;;;16.48;10.00;;;;;;;3.01;100.00;95853.13;4998043;28;20429;-59
2021/10/12 00:14:08;;;;;;;17.95;10.93;;;;;;;2.98;100.00;95853.53;5020332;28;20044;-58
2021/10/12 00:16:33;;;;;;;16.65;9.73;;;;;;;2.94;100.00;95857.59;5013500;28;20030;-58
2021/10/12 00:19:02;;;;;;;16.25;9.48;;;;;;;2.88;100.00;95859.19;5014196;28;20116;-55
2021/10/12 00:21:30;;;;;;;14.85;10.15;;;;;;;2.88;100.00;95856.53;4997831;28;20026;-58
2021/10/12 00:23:59;;;;;;;14.15;9.75;;;;;;;2.87;100.00;95857.56;5013929;28;20025;-58
2021/10/12 00:26:24;;;;;;;18.60;9.48;;;;;;;2.84;100.00;95860.63;4977151;28;20053;-54
2021/10/12 00:28:50;;;;;;;17.85;9.60;;;;;;;2.82;100.00;95859.97;4990089;28;20057;-55
2021/10/12 00:31:21;;;;;;;15.80;9.15;;;;;;;2.81;100.00;95853.03;5014100;28;20030;-58
2021/10/12 00:33:46;;;;;;;13.73;9.18;;;;;;;2.80;100.00;95859.34;5013849;28;20429;-58
2021/10/12 00:36:12;;;;;;;15.00;9.50;;;;;;;2.76;100.00;95851.00;4979127;28;20105;-55
2021/10/12 00:38:37;;;;;;;14.68;9.32;;;;;;;2.72;100.00;95863.00;5014160;28;20108;-59
2021/10/12 00:41:06;;;;;;;18.30;10.52;;;;;;;2.72;100.00;95856.91;4996750;28;20502;-60
2021/10/12 00:43:35;;;;;;;15.02;9.50;;;;;;;2.71;100.00;95857.88;4980326;28;20045;-58
2021/10/12 00:46:01;;;;;;;15.70;9.35;;;;;;;2.64;100.00;95855.22;5014196;28;20500;-54
2021/10/12 00:48:27;;;;;;;14.40;9.52;;;;;;;2.59;100.00;95855.81;5013592;28;20105;-57
2021/10/12 00:50:53;;;;;;;16.10;9.70;;;;;;;2.56;100.00;95850.09;5013929;28;20537;-59
2021/10/12 00:53:18;;;;;;;16.77;10.27;;;;;;;2.51;100.00;95842.75;4995999;28;20029;-55
2021/10/12 00:55:46;;;;;;;17.38;9.75;;;;;;;2.47;100.00;95843.34;5013865;28;20501;-57
2021/10/12 00:58:15;;;;;;;15.57;10.27;;;;;;;2.45;100.00;95838.25;4996767;28;20500;-57
2021/10/12 01:00:41;;;;;;;13.50;9.38;;;;;;;2.44;100.00;95833.97;4980034;28;20026;-57
2021/10/12 01:03:07;;;;;;;15.55;9.60;;;;;;;2.44;100.00;95826.03;4995729;28;20053;-57
2021/10/12 01:05:35;;;;;;;14.23;9.25;;;;;;;2.45;100.00;95817.09;4994588;28;20104;-59
2021/10/12 01:08:01;;;;;;;13.63;9.40;;;;;;;2.41;100.00;95817.69;4994126;28;20027;-58
2021/10/12 01:10:30;;;;;;;13.95;8.77;;;;;;;2.38;100.00;95824.16;4976514;28;20030;-59
2021/10/12 01:13:06;;;;;;;16.42;9.70;;;;;;;2.36;100.00;95820.09;4976194;28;20393;-57
2021/10/12 01:15:32;;;;;;;15.23;9.32;;;;;;;2.33;100.00;95818.66;4987171;28;20053;-57
2021/10/12 01:18:01;;;;;;;16.60;9.13;;;;;;;2.32;100.00;95809.91;4976407;28;20485;-58
2021/10/12 01:20:34;;;;;;;17.67;9.70;;;;;;;2.31;100.00;95805.66;4993840;28;20101;-56
2021/10/12 01:23:03;;;;;;;16.13;9.50;;;;;;;2.31;100.00;95805.66;4993438;28;20544;-53
2021/10/12 01:25:31;;;;;;;14.73;9.93;;;;;;;2.34;100.00;95804.44;4976421;28;20032;-58
2021/10/12 01:27:57;;;;;;;14.88;9.07;;;;;;;2.41;100.00;95810.56;4960228;28;20105;-53
2021/10/12 01:30:22;;;;;;;14.52;9.20;;;;;;;2.45;100.00;95805.69;4976080;28;20102;-57
2021/10/12 01:32:51;;;;;;;15.05;9.70;;;;;;;2.45;100.00;95811.00;4976012;28;20037;-55
2021/10/12 01:35:16;;;;;;;16.90;9.75;;;;;;;2.44;100.00;95801.44;4993416;28;20026;-55
2021/10/12 01:37:42;;;;;;;14.75;9.32;;;;;;;2.43;100.00;95790.03;4993483;28;20113;-54
2021/10/12 01:40:12;;;;;;;13.75;9.48;;;;;;;2.49;100.00;95791.88;4976025;28;20100;-58
2021/10/12 01:42:37;;;;;;;16.48;9.82;;;;;;;2.57;100.00;95791.72;4976143;28;20027;-59
2021/10/12 01:45:08;;;;;;;16.52;9.55;;;;;;;2.60;100.00;95783.41;4975985;28;20393;-59
2021/10/12 01:47:33;;;;;;;18.17;10.25;;;;;;;2.67;100.00;95782.59;4975629;28;20026;-57
2021/10/12 01:50:01;;;;;;;14.13;9.48;;;;;;;2.72;100.00;95764.31;4993169;28;20042;-56
2021/10/12 01:52:29;;;;;;;15.85;10.60;;;;;;;2.79;100.00;95768.59;4975694;28;20027;-54
2021/10/12 01:54:54;;;;;;;16.85;9.73;;;;;;;2.88;100.00;95769.22;4993152;28;20026;-56
2021/10/12 01:57:23;;;;;;;15.55;10.25;;;;;;;3.04;100.00;95766.22;4975774;28;20388;-54
2021/10/12 02:00:06;;;;;;;17.95;10.23;;;;;;;3.14;100.00;95757.88;4993103;28;20473;-58
2021/10/12 02:02:34;;;;;;;16.77;10.40;;;;;;;3.17;100.00;95760.94;4975372;28;20079;-54
2021/10/12 02:04:59;;;;;;;15.13;10.20;;;;;;;3.17;100.00;95754.84;4993149;28;20066;-59
2021/10/12 02:07:25;;;;;;;15.82;9.80;;;;;;;3.17;100.00;95752.19;5009668;28;20072;-58
2021/10/12 02:09:56;;;;;;;16.50;10.45;;;;;;;3.16;100.00;95751.38;5012370;28;20483;-57
2021/10/12 02:12:22;;;;;;;17.40;11.02;;;;;;;3.18;100.00;95744.03;5012169;28;20056;-57
2021/10/12 02:14:50;;;;;;;19.25;11.20;;;;;;;3.23;100.00;95742.63;5025591;28;20057;-54
2021/10/12 02:17:18;;;;;;;18.00;10.63;;;;;;;3.28;100.00;95743.66;5012296;28;20054;-54
2021/10/12 02:19:44;;;;;;;16.95;10.30;;;;;;;3.32;100.00;95744.03;5012348;28;20022;-55
2021/10/12 02:22:09;;;;;;;18.08;10.63;;;;;;;3.37;100.00;95745.09;5011716;28;20092;-58
2021/10/12 02:24:38;;;;;;;18.02;11.68;;;;;;;3.45;100.00;95744.03;5012265;28;20117;-56
2021/10/12 02:27:03;;;;;;;17.40;11.55;;;;;;;3.53;100.00;95748.31;4994720;28;20030;-55
2021/10/12 02:29:32;;;;;;;19.75;11.60;;;;;;;3.61;100.00;95746.28;5012229;28;20055;-58
2021/10/12 02:31:57;;;;;;;23.50;13.07;;;;;;;3.68;100.00;95752.38;5011939;28;20037;-59
2021/10/12 02:34:23;;;;;;;22.83;13.02;;;;;;;3.81;100.00;95748.91;5012092;28;20033;-57
2021/10/12 02:36:48;;;;;;;20.73;12.68;;;;;;;3.90;100.00;95746.84;5011892;28;20029;-55
2021/10/12 02:39:19;;;;;;;19.88;12.40;;;;;;;3.95;100.00;95747.06;4994506;28;20026;-53
2021/10/12 02:41:54;;;;;;;23.30;13.77;;;;;;;4.01;100.00;95752.31;4994478;28;20033;-53
2021/10/12 02:44:19;;;;;;;22.50;12.93;;;;;;;4.07;100.00;95745.41;4969977;28;20029;-56
2021/10/12 02:46:45;;;;;;;20.70;12.90;;;;;;;4.13;100.00;95744.56;5014021;28;20075;-56
2021/10/12 02:49:10;;;;;;;18.05;11.77;;;;;;;4.17;100.00;95732.53;5013919;28;20132;-57
2021/10/12 02:51:35;;;;;;;19.40;12.13;;;;;;;4.20;100.00;95728.63;5031500;28;20049;-56
2021/10/12 02:54:01;;;;;;;19.80;12.98;;;;;;;4.25;100.00;95731.47;5031158;28;20072;-58
2021/10/12 02:56:26;;;;;;;20.83;12.50;;;;;;;4.29;100.00;95730.03;5013941;28;20032;-56
2021/10/12 02:58:54;;;;;;;19.90;12.57;;;;;;;4.36;100.00;95725.53;5030831;28;20777;-54
2021/10/12 03:01:20;;;;;;;20.13;12.90;;;;;;;4.46;100.00;95723.25;5013849;28;20057;-54
2021/10/12 03:03:50;;;;;;;18.85;11.57;;;;;;;4.51;100.00;95718.09;5031205;28;20503;-57
2021/10/12 03:06:16;;;;;;;18.77;12.63;;;;;;;4.54;100.00;95725.63;5013321;28;20411;-55
2021/10/12 03:08:48;;;;;;;20.80;12.95;;;;;;;4.57;100.00;95719.09;5013930;28;20032;-57
2021/10/12 03:11:14;;;;;;;17.70;12.05;;;;;;;4.59;100.00;95706.44;5013598;28;20029;-53
2021/10/12 03:13:39;;;;;;;18.20;12.15;;;;;;;4.60;100.00;95700.91;5003764;28;20053;-59
2021/10/12 03:16:07;;;;;;;20.33;12.95;;;;;;;4.61;100.00;95694.59;5005423;28;20037;-53
2021/10/12 03:18:33;;;;;;;18.13;11.50;;;;;;;4.65;100.00;95679.84;5011468;28;20392;-56
2021/10/12 03:21:05;;;;;;;17.60;12.20;;;;;;;4.66;100.00;95680.66;4994623;28;20033;-54
2021/10/12 03:23:33;;;;;;;19.38;11.52;;;;;;;4.69;100.00;95676.78;4994132;28;20469;-55
2021/10/12 03:26:03;;;;;;;17.92;11.18;;;;;;;4.72;100.00;95671.06;4993959;28;20069;-57
2021/10/12 03:28:29;;;;;;;23.05;12.55;;;;;;;4.72;100.00;95669.22;5011766;28;20143;-56
2021/10/12 03:30:54;;;;;;;18.80;11.85;;;;;;;4.78;100.00;95667.56;4993832;28;20029;-59
2021/10/12 03:33:19;;;;;;;18.55;12.32;;;;;;;4.82;100.00;95652.81;5011189;28;20512;-58
2021/10/12 03:35:59;;;;;;;19.90;11.70;;;;;;;4.85;100.00;95655.03;4993948;28;20391;-58
2021/10/12 03:38:26;;;;;;;17.70;11.10;;;;;;;4.86;100.00;95646.03;4994115;28;20041;-58
2021/10/12 03:40:52;;;;;;;17.25;11.27;;;;;;;4.87;100.00;95635.22;4993942;28;20024;-54
2021/10/12 03:43:23;;;;;;;17.48;11.18;;;;;;;4.87;100.00;95634.41;4977246;28;20033;-58
2021/10/12 03:45:52;;;;;;;17.38;11.10;;;;;;;4.86;100.00;95636.25;4994086;28;20481;-56
2021/10/12 03:48:17;;;;;;;16.67;11.32;;;;;;;4.83;100.00;95636.69;4993809;28;20021;-54
2021/10/12 03:50:42;;;;;;;15.95;10.05;;;;;;;4.82;100.00;95640.38;4993840;28;20044;-56
2021/10/12 03:53:08;;;;;;;16.50;10.57;;;;;;;4.78;100.00;95635.72;5010843;28;20179;-55
2021/10/12 03:55:36;;;;;;;15.38;10.13;;;;;;;4.74;100.00;95640.63;4993651;28;20076;-57
2021/10/12 03:58:02;;;;;;;16.15;10.75;;;;;;;4.68;100.00;95641.50;5011249;28;20026;-55
2021/10/12 04:00:27;;;;;;;15.93;9.35;;;;;;;4.64;100.00;95643.75;4993635;28;20468;-53
2021/10/12 04:02:55;;;;;;;18.65;9.95;;;;;;;4.59;100.00;95635.63;4973963;28;20030;-55
2021/10/12 04:05:31;;;;;;;16.48;10.68;;;;;;;4.56;100.00;95638.72;5011117;28;20112;-57
2021/10/12 04:07:57;;;;;;;20.58;10.50;;;;;;;4.56;100.00;95640.56;4991597;28;20056;-54
2021/10/12 04:10:22;;;;;;;14.85;9.63;;;;;;;4.54;100.00;95640.75;4993782;28;20404;-52
2021/10/12 04:12:47;;;;;;;16.58;9.75;;;;;;;4.53;100.00;95638.31;4976939;28;20496;-54
2021/10/12 04:15:16;;;;;;;13.95;9.30;;;;;;;4.50;100.00;95623.63;4995047;28;20490;-51
2021/10/12 04:17:41;;;;;;;14.77;9.75;;;;;;;4.49;100.00;95635.28;4994899;28;20018;-54
2021/10/12 04:20:08;;;;;;;13.98;9.77;;;;;;;4.48;100.00;95625.69;4995087;28;20078;-58
2021/10/12 04:22:39;;;;;;;17.52;9.82;;;;;;;4.49;100.00;95623.84;4992918;28;20037;-56
2021/10/12 04:25:05;;;;;;;15.55;10.20;;;;;;;4.50;100.00;95618.31;4977421;28;20033;-61
2021/10/12 04:27:31;;;;;;;15.15;9.38;;;;;;;4.52;100.00;95616.28;4995049;28;20108;-56
2021/10/12 04:29:56;;;;;;;14.80;9.25;;;;;;;4.53;100.00;95622.38;4994641;28;20033;-54
2021/10/12 04:32:22;;;;;;;16.15;10.13;;;;;;;4.54;100.00;95624.00;4994387;28;20034;-57
2021/10/12 04:34:50;;;;;;;14.43;9.63;;;;;;;4.56;100.00;95625.44;4977234;28;20081;-55
2021/10/12 04:37:20;;;;;;;15.57;10.05;;;;;;;4.58;100.00;95617.28;4977222;28;20049;-52
2021/10/12 04:39:45;;;;;;;15.85;9.45;;;;;;;4.59;100.00;95608.28;4994561;28;20057;-56
2021/10/12 04:42:11;;;;;;;16.95;10.18;;;;;;;4.60;100.00;95609.91;4976928;28;20497;-52
2021/10/12 04:44:39;;;;;;;17.17;10.43;;;;;;;4.59;100.00;95597.66;4977200;28;20505;-55
2021/10/12 04:47:04;;;;;;;15.13;9.70;;;;;;;4.60;100.00;95591.34;4977288;28;20077;-56
2021/10/12 04:49:30;;;;;;;17.75;11.18;;;;;;;4.59;100.00;95590.53;4994625;28;20030;-53
2021/10/12 04:52:10;;;;;;;19.00;11.23;;;;;;;4.60;100.00;95589.50;4993960;28;20033;-55
2021/10/12 04:54:36;;;;;;;15.55;10.48;;;;;;;4.58;100.00;95599.50;4977105;28;20034;-51
2021/10/12 04:57:01;;;;;;;13.07;9.13;;;;;;;4.57;100.00;95586.47;4976986;28;20109;-52
2021/10/12 04:59:26;;;;;;;16.63;9.93;;;;;;;4.55;100.00;95586.66;4994372;28;20022;-54
2021/10/12 05:01:58;;;;;;;12.73;8.35;;;;;;;4.53;100.00;95574.63;4976409;28;20046;-56
2021/10/12 05:04:24;;;;;;;13.23;9.38;;;;;;;4.51;100.00;95582.81;4994477;28;20026;-57
2021/10/12 05:06:49;;;;;;;15.77;9.98;;;;;;;4.48;100.00;95585.91;5004101;28;20064;-57
2021/10/12 05:09:20;;;;;;;15.93;9.57;;;;;;;4.48;100.00;95588.56;5013743;28;20444;-56
2021/10/12 05:11:49;;;;;;;13.90;8.85;;;;;;;4.46;100.00;95587.97;4979428;28;20025;-58
2021/10/12 05:14:18;;;;;;;13.93;9.13;;;;;;;4.46;100.00;95579.19;5009458;28;20075;-56
2021/10/12 05:16:44;;;;;;;11.55;8.40;;;;;;;4.45;100.00;95578.38;4996273;28;20561;-55
2021/10/12 05:19:09;;;;;;;15.88;9.70;;;;;;;4.44;100.00;95579.38;5013239;28;20053;-56
2021/10/12 05:21:35;;;;;;;14.77;9.60;;;;;;;4.42;100.00;95584.09;5022316;28;20067;-55
2021/10/12 05:24:00;;;;;;;14.93;9.23;;;;;;;4.40;100.00;95583.50;5028509;28;20022;-53
2021/10/12 05:26:35;;;;;;;14.38;9.35;;;;;;;4.41;100.00;95585.13;4996688;28;20046;-58
2021/10/12 05:29:03;;;;;;;15.50;9.10;;;;;;;4.40;100.00;95580.84;4996418;28;20017;-58
2021/10/12 05:31:29;;;;;;;14.77;9.27;;;;;;;4.42;100.00;95578.78;4980445;28;20029;-57
2021/10/12 05:33:57;;;;;;;12.88;8.32;;;;;;;4.42;100.00;95576.13;4984496;28;20370;-57
2021/10/12 05:36:29;;;;;;;12.70;8.85;;;;;;;4.45;100.00;95581.03;4994789;28;20084;-61
2021/10/12 05:39:04;;;;;;;16.77;9.40;;;;;;;4.46;100.00;95572.03;5013979;28;20046;-59
2021/10/12 05:41:29;;;;;;;13.55;9.10;;;;;;;4.47;100.00;95586.13;4990596;28;20033;-58
2021/10/12 05:43:54;;;;;;;21.55;11.50;;;;;;;4.47;100.00;95584.28;4989282;28;20018;-56
2021/10/12 05:46:21;;;;;;;16.70;10.70;;;;;;;4.47;100.00;95596.72;5007838;28;20022;-59
2021/10/12 05:48:49;;;;;;;14.82;9.18;;;;;;;4.48;100.00;95611.63;4993600;28;20139;-57
2021/10/12 05:51:19;;;;;;;14.55;9.43;;;;;;;4.47;100.00;95600.19;5011795;28;20030;-57
2021/10/12 05:53:47;;;;;;;13.40;9.02;;;;;;;4.48;100.00;95601.81;4995739;28;20021;-60
2021/10/12 05:56:17;;;;;;;13.25;8.48;;;;;;;4.50;100.00;95605.06;5011634;28;20048;-57
2021/10/12 05:58:51;;;;;;;13.07;8.65;;;;;;;4.52;100.00;95610.97;5016108;28;20026;-55
2021/10/12 06:01:23;;;;;;;15.65;8.77;;;;;;;4.56;100.00;95600.75;5029310;28;20018;-59
2021/10/12 06:03:49;;;;;;;13.55;8.65;;;;;;;4.58;100.00;95596.03;4993256;28;20088;-61
2021/10/12 06:06:15;;;;;;;13.02;8.90;;;;;;;4.59;100.00;95597.66;4976162;28;20502;-53
2021/10/12 06:08:41;;;;;;;14.75;9.60;;;;;;;4.61;100.00;95595.59;4900037;28;20043;-57
2021/10/12 06:11:08;;;;;;;14.43;8.68;;;;;;;4.62;100.00;95584.78;4955356;28;20031;-57
2021/10/12 06:13:35;;;;;;;14.18;8.90;;;;;;;4.66;100.00;95593.09;4950824;28;20031;-51
2021/10/12 06:16:00;;;;;;;16.10;9.70;;;;;;;4.66;100.00;95599.22;4931890;28;20429;-63
2021/10/12 06:18:26;;;;;;;14.07;9.15;;;;;;;4.68;100.00;95598.22;4973773;28;20109;-56
2021/10/12 06:20:54;;;;;;;13.90;8.52;;;;;;;4.68;100.00;95600.88;4938985;28;20470;-59
2021/10/12 06:23:21;;;;;;;12.75;8.88;;;;;;;4.70;100.00;95604.13;4972827;28;20026;-56
2021/10/12 06:25:47;;;;;;;12.90;9.23;;;;;;;4.68;100.00;95599.03;4950613;28;20031;-58
2021/10/12 06:28:14;;;;;;;14.25;8.70;;;;;;;4.69;100.00;95597.19;4971336;28;20022;-54
2021/10/12 06:30:40;;;;;;;13.52;9.10;;;;;;;4.70;100.00;95604.94;4977490;28;20070;-57
2021/10/12 06:33:05;;;;;;;12.68;8.65;;;;;;;4.72;100.00;95602.88;4936135;28;20054;-59
2021/10/12 06:35:31;;;;;;;14.18;9.05;;;;;;;4.73;100.00;95601.03;4968408;28;20448;-57
2021/10/12 06:38:01;;;;;;;11.90;8.48;;;;;;;4.76;100.00;95605.91;4953410;28;20597;-59
2021/10/12 06:40:27;;;;;;;12.32;8.00;;;;;;;4.78;100.00;95603.88;4972448;28;20058;-60
2021/10/12 06:42:53;;;;;;;16.35;10.15;;;;;;;4.83;100.00;95606.69;4955390;28;20034;-56
2021/10/12 06:45:19;;;;;;;19.48;10.85;;;;;;;4.87;100.00;95600.69;4953059;28;20030;-51
2021/10/12 06:47:45;;;;;;;14.75;9.40;;;;;;;4.92;100.00;95600.06;4940656;28;20023;-58
2021/10/12 06:50:11;;;;;;;15.75;9.05;;;;;;;4.98;100.00;95611.66;4973718;28;20034;-53
2021/10/12 06:52:36;;;;;;;14.70;8.75;;;;;;;5.03;100.00;95609.97;4973810;28;20034;-57
2021/10/12 06:55:02;;;;;;;17.10;9.48;;;;;;;5.08;100.00;95612.78;4956473;28;20030;-55
2021/10/12 06:57:27;;;;;;;14.45;8.63;;;;;;;5.13;100.00;95607.66;4956421;28;20027;-54
2021/10/12 06:59:53;;;;;;;13.10;8.82;;;;;;;5.17;100.00;95611.50;4973784;28;20027;-54
2021/10/12 07:02:18;;;;;;;14.20;8.50;;;;;;;5.20;100.00;95611.03;4973705;28;20027;-56
2021/10/12 07:04:44;;;;;;;13.50;9.27;;;;;;;5.23;100.00;95612.47;4973679;28;20033;-57
2021/10/12 07:07:10;;;;;;;14.65;9.13;;;;;;;5.25;100.00;95610.41;4987106;28;20391;-58
2021/10/12 07:09:35;;;;;;;14.68;9.75;;;;;;;5.24;100.00;95603.47;4992832;28;20023;-59
2021/10/12 07:12:00;;;;;;;14.35;8.90;;;;;;;5.27;100.00;95610.19;4975239;28;20388;-59
2021/10/12 07:14:27;;;;;;;15.68;9.45;;;;;;;5.29;100.00;95608.94;4975583;28;20046;-57
2021/10/12 07:16:53;;;;;;;20.40;8.98;;;;;;;5.30;100.00;95615.06;4992889;28;20038;-59
2021/10/12 07:19:18;;;;;;;12.93;9.05;;;;;;;5.33;100.00;95607.47;4992923;28;20031;-53
2021/10/12 07:21:46;;;;;;;14.40;9.18;;;;;;;5.37;100.00;95610.50;4992861;28;20065;-57
2021/10/12 07:24:12;;;;;;;15.52;9.27;;;;;;;5.44;100.00;95613.91;4975835;28;20033;-53
2021/10/12 07:26:37;;;;;;;14.32;8.77;;;;;;;5.51;100.00;95614.63;4969361;28;20034;-55
2021/10/12 07:29:02;;;;;;;14.52;8.65;;;;;;;5.56;100.00;95609.50;4983588;28;20026;-57
2021/10/12 07:31:28;;;;;;;14.13;8.60;;;;;;;5.61;100.00;95614.13;4992762;28;20042;-59
2021/10/12 07:33:53;;;;;;;12.23;8.75;;;;;;;5.65;100.00;95610.84;4992757;28;20022;-58
2021/10/12 07:36:19;;;;;;;17.55;9.80;;;;;;;5.69;100.00;95612.00;4975390;28;20033;-57
2021/10/12 07:38:44;;;;;;;15.18;10.35;;;;;;;5.73;100.00;95613.19;4992824;28;20026;-57
2021/10/12 07:41:09;;;;;;;16.27;9.32;;;;;;;5.80;100.00;95607.78;4992566;28;20022;-54
2021/10/12 07:43:37;;;;;;;15.63;9.57;;;;;;;5.89;100.00;95618.94;4992818;28;20117;-60
2021/10/12 07:46:03;;;;;;;14.68;10.02;;;;;;;5.98;100.00;95631.75;4962737;28;20477;-60
2021/10/12 07:48:31;;;;;;;15.35;10.10;;;;;;;6.09;100.00;95623.03;4979236;28;20169;-59
2021/10/12 07:50:56;;;;;;;17.90;11.57;;;;;;;6.22;100.00;95621.25;4979368;28;20503;-59
2021/10/12 07:53:22;;;;;;;18.80;11.48;;;;;;;6.33;100.00;95625.81;5015974;28;20105;-58
2021/10/12 07:55:53;;;;;;;18.15;11.60;;;;;;;6.42;100.00;95619.13;5015737;28;20038;-52
2021/10/12 07:58:19;;;;;;;20.38;11.55;;;;;;;6.51;100.00;95623.09;5015970;28;20057;-53
2021/10/12 08:00:46;;;;;;;19.65;11.80;;;;;;;6.54;100.00;95616.50;5015855;28;20058;-57
2021/10/12 08:03:16;;;;;;;18.25;11.23;;;;;;;6.63;100.00;95613.31;4998263;28;20481;-56
2021/10/12 08:05:41;;;;;;;19.10;12.55;;;;;;;6.73;100.00;95611.91;5015481;28;20433;-56
2021/10/12 08:08:07;;;;;;;20.95;11.35;;;;;;;6.78;100.00;95612.06;5015666;28;20116;-58
2021/10/12 08:10:34;;;;;;;22.10;11.95;;;;;;;6.86;100.00;95617.88;5015588;28;20025;-56
2021/10/12 08:13:05;;;;;;;19.65;12.23;;;;;;;6.92;100.00;95618.81;4998333;28;20026;-55
2021/10/12 08:15:30;;;;;;;20.88;11.57;;;;;;;6.95;100.00;95624.50;4997904;28;20101;-54
2021/10/12 08:17:56;;;;;;;17.88;11.52;;;;;;;7.02;100.00;95619.06;4998163;28;20117;-52
2021/10/12 08:20:21;;;;;;;16.92;10.98;;;;;;;7.11;100.00;95623.00;4998077;28;20018;-57
2021/10/12 08:22:47;;;;;;;21.13;12.40;;;;;;;7.21;100.00;95630.44;5002871;28;20033;-56
2021/10/12 08:25:13;;;;;;;22.27;12.18;;;;;;;7.25;100.00;95618.28;4995753;28;20034;-56
2021/10/12 08:27:40;;;;;;;21.48;11.75;;;;;;;7.35;100.00;95618.50;4962371;28;20034;-55
2021/10/12 08:30:07;;;;;;;22.85;13.45;;;;;;;7.45;100.00;95623.25;4995647;28;20022;-56
2021/10/12 08:32:33;;;;;;;19.88;12.48;;;;;;;7.50;100.00;95632.19;4978317;28;20030;-57
2021/10/12 08:34:58;;;;;;;21.58;13.32;;;;;;;7.60;100.00;95620.13;4995593;28;20026;-58
2021/10/12 08:37:24;;;;;;;17.73;12.80;;;;;;;7.68;100.00;95622.44;4978118;28;20039;-58
2021/10/12 08:39:49;;;;;;;23.23;11.85;;;;;;;7.75;100.00;95620.47;4978168;28;20108;-55
2021/10/12 08:42:36;;;;;;;19.60;12.30;;;;;;;7.80;100.00;95615.25;4995631;28;20477;-58
2021/10/12 08:45:05;;;;;;;19.90;11.80;;;;;;;7.90;100.00;95611.97;4995373;28;20034;-57
2021/10/12 08:47:32;;;;;;;19.73;11.93;;;;;;;8.01;100.00;95609.28;4995359;28;20029;-61
2021/10/12 08:49:58;;;;;;;19.25;12.15;;;;;;;8.13;100.00;95607.41;4977951;28;20058;-61
2021/10/12 08:52:26;;;;;;;19.27;11.88;;;;;;;8.26;100.00;95606.34;4977975;28;20030;-60
2021/10/12 08:54:54;;;;;;;19.33;12.75;;;;;;;8.35;100.00;95599.56;4961714;28;20500;-58
2021/10/12 08:57:48;;;;;;;18.77;12.02;;;;;;;8.38;100.00;95601.00;4994172;28;20037;-56
2021/10/12 09:00:18;;;;;;;20.30;11.98;;;;;;;8.37;100.00;95596.69;4978397;28;20037;-59
2021/10/12 09:06:00;;;;;;;19.15;11.55;;;;;;;8.30;100.00;95586.13;4994914;28;20146;-60
2021/10/12 09:08:30;;;;;;;18.88;11.95;;;;;;;8.30;100.00;95585.31;4977487;28;20030;-62
2021/10/12 09:10:57;;;;;;;22.58;13.15;;;;;;;8.26;100.00;95578.84;4994967;28;20429;-58
2021/10/12 09:13:23;;;;;;;20.92;12.10;;;;;;;8.25;100.00;95572.69;4970086;28;20023;-62
2021/10/12 09:16:10;;;;;;;21.70;12.88;;;;;;;8.27;100.00;95564.44;4992203;28;20040;-60
2021/10/12 09:18:57;;;;;;;24.67;12.95;;;;;;;8.31;100.00;95558.38;4975011;28;20486;-61
2021/10/12 09:21:31;;;;;;;19.92;12.20;;;;;;;8.31;100.00;95550.38;4958331;28;20026;-61
2021/10/12 09:24:21;;;;;;;20.00;12.45;;;;;;;8.36;100.00;95547.03;4973269;28;20034;-58
2021/10/12 09:27:08;;;;;;;21.15;13.20;;;;;;;8.42;100.00;95538.88;4969054;28;20046;-57
2021/10/12 09:29:45;;;;;;;23.08;12.60;;;;;;;8.54;100.00;95532.66;4993152;28;20486;-61
2021/10/12 09:32:11;;;;;;;17.77;11.68;;;;;;;8.61;100.00;95523.44;4984717;28;20026;-55
2021/10/12 09:34:42;;;;;;;18.10;11.75;;;;;;;8.72;100.00;95521.75;4993251;28;20034;-55
2021/10/12 09:37:08;;;;;;;18.58;12.65;;;;;;;-144.43;100.00;64487.81;4975962;28;20034;-57
2021/10/12 09:39:46;;;;;;;21.15;12.60;;;;;;;-144.43;100.00;64487.81;4955150;28;20496;-58
2021/10/12 09:42:17;;;;;;;19.10;11.85;;;;;;;-144.43;100.00;64487.81;4986593;28;20037;-56
2021/10/12 09:44:49;;;;;;;20.88;12.60;;;;;;;-144.43;100.00;64487.81;4993893;28;20026;-57
2021/10/12 09:47:15;;;;;;;19.30;11.75;;;;;;;-144.43;100.00;64487.81;4976922;28;20026;-57
2021/10/12 09:49:41;;;;;;;20.23;12.57;;;;;;;-144.43;100.00;64487.81;4976839;28;20026;-60
2021/10/12 09:52:15;;;;;;;18.30;12.02;;;;;;;-144.43;100.00;64487.81;4976021;28;20022;-62
2021/10/12 09:54:49;;;;;;;17.38;12.30;;;;;;;-144.43;100.00;64487.81;4994164;28;20037;-60
2021/10/12 09:57:21;;;;;;;17.42;11.95;;;;;;;-144.43;100.00;64487.81;4961483;28;20037;-61
2021/10/12 09:59:47;;;;;;;22.07;13.40;;;;;;;-144.43;100.00;64487.81;4994121;28;20505;-61
2021/10/12 10:02:20;;;;;;;21.73;12.90;;;;;;;-144.43;100.00;64487.81;4976603;28;20041;-59
2021/10/12 10:04:49;;;;;;;24.08;13.70;;;;;;;-144.43;100.00;64487.81;4976453;28;20033;-59
2021/10/12 10:07:42;;;;;;;20.77;13.63;;;;;;;-144.43;100.00;64487.81;4960314;28;20050;-58
2021/10/12 10:10:08;;;;;;;21.20;13.73;;;;;;;-144.43;100.00;64487.81;4968674;28;20375;-59
2021/10/12 10:12:34;;;;;;;19.58;12.68;;;;;;;-144.43;100.00;64487.81;4993649;28;20040;-58
2021/10/12 10:15:00;;;;;;;24.33;13.60;;;;;;;-144.43;100.00;64487.81;4993630;28;20026;-59
2021/10/12 10:17:28;;;;;;;17.92;12.48;;;;;;;-144.43;100.00;64487.81;4993542;28;20089;-59
2021/10/12 10:19:56;;;;;;;22.73;13.65;;;;;;;-144.43;100.00;64487.81;4976472;28;20026;-57
2021/10/12 10:22:33;;;;;;;28.48;12.57;;;;;;;-144.43;100.00;64487.81;4976133;28;20018;-58
2021/10/12 10:24:59;;;;;;;20.50;13.00;;;;;;;-144.43;100.00;64487.81;4972714;28;20031;-58
2021/10/12 10:27:41;;;;;;;22.35;12.18;;;;;;;-144.43;100.00;64487.81;4966691;28;20528;-58
2021/10/12 10:30:31;;;;;;;17.05;11.82;;;;;;;-144.43;100.00;64487.81;4975866;28;20125;-56
2021/10/12 10:33:02;;;;;;;19.55;11.98;;;;;;;-144.43;100.00;64487.81;4993455;28;20545;-58
2021/10/12 10:35:41;;;;;;;20.70;12.48;;;;;;;-144.43;100.00;64487.81;4976133;28;20473;-58
2021/10/12 10:38:36;;;;;;;18.95;12.20;;;;;;;-144.43;100.00;64487.81;4975882;28;20022;-55
2021/10/12 10:41:08;;;;;;;19.48;12.60;;;;;;;-144.43;100.00;64487.81;4942442;28;20133;-59
2021/10/12 10:43:48;;;;;;;18.05;11.60;;;;;;;-144.43;100.00;64487.81;4993169;28;20041;-60
2021/10/12 10:46:35;;;;;;;20.25;12.52;;;;;;;-144.43;100.00;64487.81;4975815;28;20113;-59
2021/10/12 10:49:16;;;;;;;19.48;13.05;;;;;;;-144.43;100.00;64487.81;4993206;28;20026;-57
2021/10/12 10:52:06;;;;;;;20.73;12.52;;;;;;;-144.43;100.00;64487.81;4975842;28;20109;-58
2021/10/12 10:54:43;;;;;;;19.48;12.60;;;;;;;-144.43;100.00;64487.81;4976920;28;20030;-55
2021/10/12 10:57:14;;;;;;;22.55;13.23;;;;;;;-144.43;100.00;64487.81;4993153;28;20464;-54
2021/10/12 10:59:40;;;;;;;19.92;12.63;;;;;;;-144.43;100.00;64487.81;4976089;28;20026;-56
2021/10/12 11:02:30;;;;;;;17.38;12.02;;;;;;;-144.43;100.00;64487.81;4975758;28;20033;-53
2021/10/12 11:04:56;;;;;;;18.98;12.10;;;;;;;-144.43;100.00;64487.81;4993072;28;20504;-60
2021/10/12 11:07:23;;;;;;;17.52;12.35;;;;;;;-144.43;100.00;64487.81;4959205;28;20046;-56
2021/10/12 11:09:49;;;;;;;20.48;12.38;;;;;;;-144.43;100.00;64487.81;4993030;28;20031;-55
2021/10/12 11:12:25;;;;;;;18.73;11.88;;;;;;;-144.43;100.00;64487.81;4976061;28;20113;-57
2021/10/12 11:14:52;;;;;;;21.75;13.02;;;;;;;-144.43;100.00;64487.81;4992852;28;20050;-54
2021/10/12 11:17:18;;;;;;;19.65;12.07;;;;;;;-144.43;100.00;64487.81;4975690;28;20096;-56
2021/10/12 11:19:55;;;;;;;22.25;12.30;;;;;;;-144.43;100.00;64487.81;4992681;28;20093;-62
2021/10/12 11:22:21;;;;;;;21.23;12.80;;;;;;;-144.43;100.00;64487.81;4985190;28;20057;-61
2021/10/12 11:24:47;;;;;;;16.15;11.40;;;;;;;-144.43;100.00;64487.81;4956836;28;20434;-60
2021/10/12 11:27:15;;;;;;;19.17;12.25;;;;;;;-144.43;100.00;64487.81;4976721;28;20512;-61